FACL weather

Carolina Airport
Carolina, Mpumalanga, South Africa

Public forecast

Using degrees Celsius for public forecast. Weather courtesy of forecast.io.

METAR (pilot weather report)

Report is more than 6 hours old.

Closest report is Ermelo Airport, 25.8 nm (47.8 km) SSW. Retrieved 2019/07/16 08:39 UTC (2 days ago):

FAEO 160839Z 26002KT CAVOK 18/M05 Q1032

TAF (pilot weather forecast)

Forecast is more than 12 hours old.

Closest forecast is Ermelo Airport, 25.8 nm (47.8 km) SSW. Retrieved 2017/06/05 04:55 UTC (2 years ago):

TAF FAEO 050300Z 0504/0515 09006KT CAVOK TX18/0513ZTN05/0504Z